sensor_id;sensor_type;location;lat;lon;timestamp;temperature;humidity
9373;DHT22;10838;52.350;9.790;2024-01-27T00:00:21;6.30;96.70
9373;DHT22;10838;52.350;9.790;2024-01-27T00:02:48;6.30;96.70
9373;DHT22;10838;52.350;9.790;2024-01-27T00:05:16;6.30;96.70
9373;DHT22;10838;52.350;9.790;2024-01-27T00:07:42;6.30;96.70
9373;DHT22;10838;52.350;9.790;2024-01-27T00:10:09;6.30;96.70
9373;DHT22;10838;52.350;9.790;2024-01-27T00:12:36;6.30;96.70
9373;DHT22;10838;52.350;9.790;2024-01-27T00:15:03;6.30;96.70
9373;DHT22;10838;52.350;9.790;2024-01-27T00:17:30;6.30;96.70
9373;DHT22;10838;52.350;9.790;2024-01-27T00:19:56;6.30;96.70
9373;DHT22;10838;52.350;9.790;2024-01-27T00:22:24;6.30;96.70
9373;DHT22;10838;52.350;9.790;2024-01-27T00:24:51;6.30;96.70
9373;DHT22;10838;52.350;9.790;2024-01-27T00:27:17;6.30;96.70
9373;DHT22;10838;52.350;9.790;2024-01-27T00:29:44;6.30;96.70
9373;DHT22;10838;52.350;9.790;2024-01-27T00:32:11;6.30;96.70
9373;DHT22;10838;52.350;9.790;2024-01-27T00:34:37;6.30;96.80
9373;DHT22;10838;52.350;9.790;2024-01-27T00:37:04;6.30;96.80
9373;DHT22;10838;52.350;9.790;2024-01-27T00:39:32;6.30;96.80
9373;DHT22;10838;52.350;9.790;2024-01-27T00:41:59;6.30;96.80
9373;DHT22;10838;52.350;9.790;2024-01-27T00:44:25;6.30;96.80
9373;DHT22;10838;52.350;9.790;2024-01-27T00:46:52;6.30;96.80
9373;DHT22;10838;52.350;9.790;2024-01-27T00:49:18;6.30;96.80
9373;DHT22;10838;52.350;9.790;2024-01-27T00:51:45;6.30;96.80
9373;DHT22;10838;52.350;9.790;2024-01-27T00:54:12;6.30;96.80
9373;DHT22;10838;52.350;9.790;2024-01-27T00:56:40;6.30;96.80
9373;DHT22;10838;52.350;9.790;2024-01-27T00:59:06;6.30;96.80
9373;DHT22;10838;52.350;9.790;2024-01-27T01:01:33;6.30;96.90
9373;DHT22;10838;52.350;9.790;2024-01-27T01:03:59;6.30;96.90
9373;DHT22;10838;52.350;9.790;2024-01-27T01:06:26;6.30;96.90
9373;DHT22;10838;52.350;9.790;2024-01-27T01:08:52;6.30;96.90
9373;DHT22;10838;52.350;9.790;2024-01-27T01:11:19;6.30;97.00
9373;DHT22;10838;52.350;9.790;2024-01-27T01:13:47;6.30;96.90
9373;DHT22;10838;52.350;9.790;2024-01-27T01:16:13;6.30;96.90
9373;DHT22;10838;52.350;9.790;2024-01-27T01:18:40;6.30;96.90
9373;DHT22;10838;52.350;9.790;2024-01-27T01:21:06;6.30;96.90
9373;DHT22;10838;52.350;9.790;2024-01-27T01:23:33;6.30;96.90
9373;DHT22;10838;52.350;9.790;2024-01-27T01:25:59;6.30;96.90
9373;DHT22;10838;52.350;9.790;2024-01-27T01:28:26;6.20;96.90
9373;DHT22;10838;52.350;9.790;2024-01-27T01:30:55;6.20;97.00
9373;DHT22;10838;52.350;9.790;2024-01-27T01:33:21;6.20;97.00
9373;DHT22;10838;52.350;9.790;2024-01-27T01:35:48;6.10;97.00
9373;DHT22;10838;52.350;9.790;2024-01-27T01:38:14;6.10;97.00
9373;DHT22;10838;52.350;9.790;2024-01-27T01:40:41;6.00;96.90
9373;DHT22;10838;52.350;9.790;2024-01-27T01:43:10;6.00;97.00
9373;DHT22;10838;52.350;9.790;2024-01-27T01:45:37;6.00;97.00
9373;DHT22;10838;52.350;9.790;2024-01-27T01:48:05;6.00;97.00
9373;DHT22;10838;52.350;9.790;2024-01-27T01:50:33;5.90;97.00
9373;DHT22;10838;52.350;9.790;2024-01-27T01:53:00;5.90;97.00
9373;DHT22;10838;52.350;9.790;2024-01-27T01:55:27;5.80;97.00
9373;DHT22;10838;52.350;9.790;2024-01-27T01:57:54;5.80;97.00
9373;DHT22;10838;52.350;9.790;2024-01-27T02:00:20;5.80;97.00
9373;DHT22;10838;52.350;9.790;2024-01-27T02:02:48;5.80;97.00
9373;DHT22;10838;52.350;9.790;2024-01-27T02:05:16;5.70;97.00
9373;DHT22;10838;52.350;9.790;2024-01-27T02:07:42;5.70;97.00
9373;DHT22;10838;52.350;9.790;2024-01-27T02:10:13;5.70;97.00
9373;DHT22;10838;52.350;9.790;2024-01-27T02:12:40;5.70;97.00
9373;DHT22;10838;52.350;9.790;2024-01-27T02:15:09;5.60;97.00
9373;DHT22;10838;52.350;9.790;2024-01-27T02:17:36;5.60;97.00
9373;DHT22;10838;52.350;9.790;2024-01-27T02:20:04;5.60;97.00
9373;DHT22;10838;52.350;9.790;2024-01-27T02:22:33;5.50;97.00
9373;DHT22;10838;52.350;9.790;2024-01-27T02:25:01;5.50;97.00
9373;DHT22;10838;52.350;9.790;2024-01-27T02:27:28;5.50;97.00
9373;DHT22;10838;52.350;9.790;2024-01-27T02:29:54;5.50;97.00
9373;DHT22;10838;52.350;9.790;2024-01-27T02:32:21;5.50;97.00
9373;DHT22;10838;52.350;9.790;2024-01-27T02:34:47;5.40;97.00
9373;DHT22;10838;52.350;9.790;2024-01-27T02:37:14;5.40;97.00
9373;DHT22;10838;52.350;9.790;2024-01-27T02:39:40;5.40;97.00
9373;DHT22;10838;52.350;9.790;2024-01-27T02:42:08;5.40;97.00
9373;DHT22;10838;52.350;9.790;2024-01-27T02:44:35;5.40;97.00
9373;DHT22;10838;52.350;9.790;2024-01-27T02:47:01;5.40;97.00
9373;DHT22;10838;52.350;9.790;2024-01-27T02:49:28;5.40;97.00
9373;DHT22;10838;52.350;9.790;2024-01-27T02:51:54;5.40;97.00
9373;DHT22;10838;52.350;9.790;2024-01-27T02:54:21;5.30;97.00
9373;DHT22;10838;52.350;9.790;2024-01-27T02:56:47;5.30;97.00
9373;DHT22;10838;52.350;9.790;2024-01-27T02:59:15;5.30;97.00
9373;DHT22;10838;52.350;9.790;2024-01-27T03:01:42;5.30;97.10
9373;DHT22;10838;52.350;9.790;2024-01-27T03:04:08;5.30;97.10
9373;DHT22;10838;52.350;9.790;2024-01-27T03:06:35;5.30;97.10
9373;DHT22;10838;52.350;9.790;2024-01-27T03:09:01;5.30;97.10
9373;DHT22;10838;52.350;9.790;2024-01-27T03:11:28;5.30;97.10
9373;DHT22;10838;52.350;9.790;2024-01-27T03:13:55;5.30;97.10
9373;DHT22;10838;52.350;9.790;2024-01-27T03:16:23;5.20;97.10
9373;DHT22;10838;52.350;9.790;2024-01-27T03:18:49;5.20;97.10
9373;DHT22;10838;52.350;9.790;2024-01-27T03:21:16;5.20;97.10
9373;DHT22;10838;52.350;9.790;2024-01-27T03:23:42;5.20;97.10
9373;DHT22;10838;52.350;9.790;2024-01-27T03:26:09;5.20;97.10
9373;DHT22;10838;52.350;9.790;2024-01-27T03:28:35;5.20;97.10
9373;DHT22;10838;52.350;9.790;2024-01-27T03:31:02;5.20;97.10
9373;DHT22;10838;52.350;9.790;2024-01-27T03:33:30;5.20;97.10
9373;DHT22;10838;52.350;9.790;2024-01-27T03:35:57;5.20;97.10
9373;DHT22;10838;52.350;9.790;2024-01-27T03:38:23;5.20;97.10
9373;DHT22;10838;52.350;9.790;2024-01-27T03:40:50;5.10;97.10
9373;DHT22;10838;52.350;9.790;2024-01-27T03:43:16;5.10;97.10
9373;DHT22;10838;52.350;9.790;2024-01-27T03:45:43;5.10;97.10
9373;DHT22;10838;52.350;9.790;2024-01-27T03:48:10;5.10;97.10
9373;DHT22;10838;52.350;9.790;2024-01-27T03:50:38;5.10;97.10
9373;DHT22;10838;52.350;9.790;2024-01-27T03:53:05;5.10;97.10
9373;DHT22;10838;52.350;9.790;2024-01-27T03:55:31;5.10;97.10
9373;DHT22;10838;52.350;9.790;2024-01-27T03:57:59;5.10;97.10
9373;DHT22;10838;52.350;9.790;2024-01-27T04:00:26;5.10;97.10
9373;DHT22;10838;52.350;9.790;2024-01-27T04:02:55;5.10;97.10
9373;DHT22;10838;52.350;9.790;2024-01-27T04:05:21;5.00;97.10
9373;DHT22;10838;52.350;9.790;2024-01-27T04:07:49;5.00;97.10
9373;DHT22;10838;52.350;9.790;2024-01-27T04:10:16;5.00;97.10
9373;DHT22;10838;52.350;9.790;2024-01-27T04:12:43;5.00;97.10
9373;DHT22;10838;52.350;9.790;2024-01-27T04:15:10;5.00;97.10
9373;DHT22;10838;52.350;9.790;2024-01-27T04:17:37;5.00;97.10
9373;DHT22;10838;52.350;9.790;2024-01-27T04:20:04;5.00;97.10
9373;DHT22;10838;52.350;9.790;2024-01-27T04:22:31;5.00;97.10
9373;DHT22;10838;52.350;9.790;2024-01-27T04:24:59;5.00;97.10
9373;DHT22;10838;52.350;9.790;2024-01-27T04:27:27;5.00;97.10
9373;DHT22;10838;52.350;9.790;2024-01-27T04:29:53;4.90;97.10
9373;DHT22;10838;52.350;9.790;2024-01-27T04:32:20;5.00;97.10
9373;DHT22;10838;52.350;9.790;2024-01-27T04:34:48;4.90;97.10
9373;DHT22;10838;52.350;9.790;2024-01-27T04:37:14;4.90;97.10
9373;DHT22;10838;52.350;9.790;2024-01-27T04:39:41;4.90;97.10
9373;DHT22;10838;52.350;9.790;2024-01-27T04:42:08;4.90;97.10
9373;DHT22;10838;52.350;9.790;2024-01-27T04:44:35;4.90;97.10
9373;DHT22;10838;52.350;9.790;2024-01-27T04:47:02;4.90;97.10
9373;DHT22;10838;52.350;9.790;2024-01-27T04:49:28;4.90;97.10
9373;DHT22;10838;52.350;9.790;2024-01-27T04:51:55;4.90;97.10
9373;DHT22;10838;52.350;9.790;2024-01-27T04:54:21;4.90;97.10
9373;DHT22;10838;52.350;9.790;2024-01-27T04:56:48;4.90;97.10
9373;DHT22;10838;52.350;9.790;2024-01-27T04:59:16;4.90;97.10
9373;DHT22;10838;52.350;9.790;2024-01-27T05:01:44;4.80;97.10
9373;DHT22;10838;52.350;9.790;2024-01-27T05:04:10;4.80;97.10
9373;DHT22;10838;52.350;9.790;2024-01-27T05:06:37;4.80;97.10
9373;DHT22;10838;52.350;9.790;2024-01-27T05:09:04;4.80;97.10
9373;DHT22;10838;52.350;9.790;2024-01-27T05:11:32;4.80;97.10
9373;DHT22;10838;52.350;9.790;2024-01-27T05:13:58;4.80;97.10
9373;DHT22;10838;52.350;9.790;2024-01-27T05:16:27;4.80;97.10
9373;DHT22;10838;52.350;9.790;2024-01-27T05:18:54;4.80;97.10
9373;DHT22;10838;52.350;9.790;2024-01-27T05:21:21;4.70;97.10
9373;DHT22;10838;52.350;9.790;2024-01-27T05:23:48;4.70;97.10
9373;DHT22;10838;52.350;9.790;2024-01-27T05:26:14;4.70;97.10
9373;DHT22;10838;52.350;9.790;2024-01-27T05:28:41;4.70;97.10
9373;DHT22;10838;52.350;9.790;2024-01-27T05:31:07;4.70;97.10
9373;DHT22;10838;52.350;9.790;2024-01-27T05:33:35;4.70;97.10
9373;DHT22;10838;52.350;9.790;2024-01-27T05:36:02;4.70;97.10
9373;DHT22;10838;52.350;9.790;2024-01-27T05:38:29;4.60;97.10
9373;DHT22;10838;52.350;9.790;2024-01-27T05:40:57;4.60;97.10
9373;DHT22;10838;52.350;9.790;2024-01-27T05:43:23;4.60;97.10
9373;DHT22;10838;52.350;9.790;2024-01-27T05:45:50;4.60;97.10
9373;DHT22;10838;52.350;9.790;2024-01-27T05:48:16;4.60;97.10
9373;DHT22;10838;52.350;9.790;2024-01-27T05:50:54;4.50;97.10
9373;DHT22;10838;52.350;9.790;2024-01-27T05:53:21;4.60;97.10
9373;DHT22;10838;52.350;9.790;2024-01-27T05:55:48;4.50;97.10
9373;DHT22;10838;52.350;9.790;2024-01-27T05:58:14;4.50;97.10
9373;DHT22;10838;52.350;9.790;2024-01-27T06:00:42;4.50;97.10
9373;DHT22;10838;52.350;9.790;2024-01-27T06:03:09;4.50;97.10
9373;DHT22;10838;52.350;9.790;2024-01-27T06:05:36;4.50;97.10
9373;DHT22;10838;52.350;9.790;2024-01-27T06:08:05;4.40;97.10
9373;DHT22;10838;52.350;9.790;2024-01-27T06:10:32;4.40;97.10
9373;DHT22;10838;52.350;9.790;2024-01-27T06:12:59;4.40;97.10
9373;DHT22;10838;52.350;9.790;2024-01-27T06:15:25;4.40;97.10
9373;DHT22;10838;52.350;9.790;2024-01-27T06:17:52;4.40;97.10
9373;DHT22;10838;52.350;9.790;2024-01-27T06:20:18;4.40;97.10
9373;DHT22;10838;52.350;9.790;2024-01-27T06:22:45;4.40;97.10
9373;DHT22;10838;52.350;9.790;2024-01-27T06:25:13;4.40;97.10
9373;DHT22;10838;52.350;9.790;2024-01-27T06:27:39;4.30;97.10
9373;DHT22;10838;52.350;9.790;2024-01-27T06:30:08;4.30;97.10
9373;DHT22;10838;52.350;9.790;2024-01-27T06:32:35;4.30;97.10
9373;DHT22;10838;52.350;9.790;2024-01-27T06:35:01;4.30;97.10
9373;DHT22;10838;52.350;9.790;2024-01-27T06:37:29;4.30;97.10
9373;DHT22;10838;52.350;9.790;2024-01-27T06:39:55;4.30;97.10
9373;DHT22;10838;52.350;9.790;2024-01-27T06:42:23;4.20;97.10
9373;DHT22;10838;52.350;9.790;2024-01-27T06:44:50;4.20;97.10
9373;DHT22;10838;52.350;9.790;2024-01-27T06:47:16;4.20;97.10
9373;DHT22;10838;52.350;9.790;2024-01-27T06:49:43;4.20;97.10
9373;DHT22;10838;52.350;9.790;2024-01-27T06:52:09;4.20;97.10
9373;DHT22;10838;52.350;9.790;2024-01-27T06:54:37;4.20;97.10
9373;DHT22;10838;52.350;9.790;2024-01-27T06:57:06;4.10;97.10
9373;DHT22;10838;52.350;9.790;2024-01-27T06:59:34;4.10;97.10
9373;DHT22;10838;52.350;9.790;2024-01-27T07:02:01;4.10;97.10
9373;DHT22;10838;52.350;9.790;2024-01-27T07:04:27;4.10;97.10
9373;DHT22;10838;52.350;9.790;2024-01-27T07:06:54;4.00;97.10
9373;DHT22;10838;52.350;9.790;2024-01-27T07:09:20;4.00;97.10
9373;DHT22;10838;52.350;9.790;2024-01-27T07:11:47;4.00;97.10
9373;DHT22;10838;52.350;9.790;2024-01-27T07:14:14;3.90;97.10
9373;DHT22;10838;52.350;9.790;2024-01-27T07:16:42;3.90;97.00
9373;DHT22;10838;52.350;9.790;2024-01-27T07:19:08;3.90;97.10
9373;DHT22;10838;52.350;9.790;2024-01-27T07:21:36;3.80;97.00
9373;DHT22;10838;52.350;9.790;2024-01-27T07:24:04;3.80;97.10
9373;DHT22;10838;52.350;9.790;2024-01-27T07:26:30;3.80;97.10
9373;DHT22;10838;52.350;9.790;2024-01-27T07:28:57;3.80;97.10
9373;DHT22;10838;52.350;9.790;2024-01-27T07:31:24;3.70;97.00
9373;DHT22;10838;52.350;9.790;2024-01-27T07:33:53;3.70;97.00
9373;DHT22;10838;52.350;9.790;2024-01-27T07:36:19;3.70;97.10
9373;DHT22;10838;52.350;9.790;2024-01-27T07:38:46;3.70;97.00
9373;DHT22;10838;52.350;9.790;2024-01-27T07:41:12;3.70;97.00
9373;DHT22;10838;52.350;9.790;2024-01-27T07:43:39;3.70;97.00
9373;DHT22;10838;52.350;9.790;2024-01-27T07:46:06;3.60;97.00
9373;DHT22;10838;52.350;9.790;2024-01-27T07:48:32;3.60;97.00
9373;DHT22;10838;52.350;9.790;2024-01-27T07:51:00;3.60;97.00
9373;DHT22;10838;52.350;9.790;2024-01-27T07:53:27;3.60;97.00
9373;DHT22;10838;52.350;9.790;2024-01-27T07:55:54;3.60;97.10
9373;DHT22;10838;52.350;9.790;2024-01-27T07:58:21;3.60;97.00
9373;DHT22;10838;52.350;9.790;2024-01-27T08:00:48;3.60;97.10
9373;DHT22;10838;52.350;9.790;2024-01-27T08:03:14;3.60;97.10
9373;DHT22;10838;52.350;9.790;2024-01-27T08:05:41;3.60;97.10
9373;DHT22;10838;52.350;9.790;2024-01-27T08:08:09;3.60;97.10
9373;DHT22;10838;52.350;9.790;2024-01-27T08:10:36;3.60;97.10
9373;DHT22;10838;52.350;9.790;2024-01-27T08:13:03;3.60;97.10
9373;DHT22;10838;52.350;9.790;2024-01-27T08:15:30;3.70;97.10
9373;DHT22;10838;52.350;9.790;2024-01-27T08:17:56;3.70;97.10
9373;DHT22;10838;52.350;9.790;2024-01-27T08:20:23;3.70;97.10
9373;DHT22;10838;52.350;9.790;2024-01-27T08:22:49;3.70;97.10
9373;DHT22;10838;52.350;9.790;2024-01-27T08:25:18;3.70;97.20
9373;DHT22;10838;52.350;9.790;2024-01-27T08:27:45;3.70;97.20
9373;DHT22;10838;52.350;9.790;2024-01-27T08:30:12;3.70;97.20
9373;DHT22;10838;52.350;9.790;2024-01-27T08:32:39;3.80;97.20
9373;DHT22;10838;52.350;9.790;2024-01-27T08:35:06;3.80;97.20
9373;DHT22;10838;52.350;9.790;2024-01-27T08:37:33;3.80;97.20
9373;DHT22;10838;52.350;9.790;2024-01-27T08:40:05;3.80;97.20
9373;DHT22;10838;52.350;9.790;2024-01-27T08:42:35;3.80;97.20
9373;DHT22;10838;52.350;9.790;2024-01-27T08:45:01;3.90;97.20
9373;DHT22;10838;52.350;9.790;2024-01-27T08:47:28;3.90;97.20
9373;DHT22;10838;52.350;9.790;2024-01-27T08:49:55;3.90;97.20
9373;DHT22;10838;52.350;9.790;2024-01-27T08:52:21;3.90;97.30
9373;DHT22;10838;52.350;9.790;2024-01-27T08:54:48;3.90;97.30
9373;DHT22;10838;52.350;9.790;2024-01-27T08:57:14;4.00;97.30
9373;DHT22;10838;52.350;9.790;2024-01-27T08:59:42;4.00;97.30
9373;DHT22;10838;52.350;9.790;2024-01-27T09:02:09;4.00;97.30
9373;DHT22;10838;52.350;9.790;2024-01-27T09:04:35;4.00;97.30
9373;DHT22;10838;52.350;9.790;2024-01-27T09:07:02;4.00;97.30
9373;DHT22;10838;52.350;9.790;2024-01-27T09:09:28;4.10;97.30
9373;DHT22;10838;52.350;9.790;2024-01-27T09:11:54;4.10;97.30
9373;DHT22;10838;52.350;9.790;2024-01-27T09:14:21;4.10;97.30
9373;DHT22;10838;52.350;9.790;2024-01-27T09:16:48;4.10;97.30
9373;DHT22;10838;52.350;9.790;2024-01-27T09:19:17;4.20;97.40
9373;DHT22;10838;52.350;9.790;2024-01-27T09:21:44;4.20;97.40
9373;DHT22;10838;52.350;9.790;2024-01-27T09:24:10;4.20;97.40
9373;DHT22;10838;52.350;9.790;2024-01-27T09:26:37;4.30;97.40
9373;DHT22;10838;52.350;9.790;2024-01-27T09:29:03;4.30;97.40
9373;DHT22;10838;52.350;9.790;2024-01-27T09:31:30;4.40;97.40
9373;DHT22;10838;52.350;9.790;2024-01-27T09:33:58;4.40;97.40
9373;DHT22;10838;52.350;9.790;2024-01-27T09:36:24;4.50;97.40
9373;DHT22;10838;52.350;9.790;2024-01-27T09:38:51;4.50;97.40
9373;DHT22;10838;52.350;9.790;2024-01-27T09:41:19;4.50;97.40
9373;DHT22;10838;52.350;9.790;2024-01-27T09:43:46;4.60;97.40
9373;DHT22;10838;52.350;9.790;2024-01-27T09:46:14;4.60;97.40
9373;DHT22;10838;52.350;9.790;2024-01-27T09:48:41;4.70;97.40
9373;DHT22;10838;52.350;9.790;2024-01-27T09:51:10;4.70;97.40
9373;DHT22;10838;52.350;9.790;2024-01-27T09:53:37;4.70;97.40
9373;DHT22;10838;52.350;9.790;2024-01-27T09:56:04;4.80;97.40
9373;DHT22;10838;52.350;9.790;2024-01-27T09:58:31;4.80;97.40
9373;DHT22;10838;52.350;9.790;2024-01-27T10:00:59;4.90;97.40
9373;DHT22;10838;52.350;9.790;2024-01-27T10:03:27;4.90;97.40
9373;DHT22;10838;52.350;9.790;2024-01-27T10:05:56;5.00;97.40
9373;DHT22;10838;52.350;9.790;2024-01-27T10:08:24;5.00;97.40
9373;DHT22;10838;52.350;9.790;2024-01-27T10:10:54;5.10;97.40
9373;DHT22;10838;52.350;9.790;2024-01-27T10:13:21;5.10;97.40
9373;DHT22;10838;52.350;9.790;2024-01-27T10:15:59;5.20;97.40
9373;DHT22;10838;52.350;9.790;2024-01-27T10:18:26;5.20;97.40
9373;DHT22;10838;52.350;9.790;2024-01-27T10:20:52;5.30;97.40
9373;DHT22;10838;52.350;9.790;2024-01-27T10:23:19;5.40;97.40
9373;DHT22;10838;52.350;9.790;2024-01-27T10:25:47;5.40;97.30
9373;DHT22;10838;52.350;9.790;2024-01-27T10:28:14;5.40;97.30
9373;DHT22;10838;52.350;9.790;2024-01-27T10:30:40;5.50;97.30
9373;DHT22;10838;52.350;9.790;2024-01-27T10:33:08;5.50;97.30
9373;DHT22;10838;52.350;9.790;2024-01-27T10:35:35;5.60;97.30
9373;DHT22;10838;52.350;9.790;2024-01-27T10:38:02;5.60;97.30
9373;DHT22;10838;52.350;9.790;2024-01-27T10:40:28;5.70;97.30
9373;DHT22;10838;52.350;9.790;2024-01-27T10:43:01;5.70;97.30
9373;DHT22;10838;52.350;9.790;2024-01-27T10:45:34;5.80;97.20
9373;DHT22;10838;52.350;9.790;2024-01-27T10:48:03;5.80;97.20
9373;DHT22;10838;52.350;9.790;2024-01-27T10:50:29;5.80;97.20
9373;DHT22;10838;52.350;9.790;2024-01-27T10:52:58;5.90;97.20
9373;DHT22;10838;52.350;9.790;2024-01-27T10:55:25;6.00;97.20
9373;DHT22;10838;52.350;9.790;2024-01-27T10:57:54;6.00;97.20
9373;DHT22;10838;52.350;9.790;2024-01-27T11:00:24;6.00;97.20
9373;DHT22;10838;52.350;9.790;2024-01-27T11:02:52;6.00;97.20
9373;DHT22;10838;52.350;9.790;2024-01-27T11:05:22;6.10;97.20
9373;DHT22;10838;52.350;9.790;2024-01-27T11:07:51;6.10;97.20
9373;DHT22;10838;52.350;9.790;2024-01-27T11:10:17;6.20;97.20
9373;DHT22;10838;52.350;9.790;2024-01-27T11:12:45;6.20;97.10
9373;DHT22;10838;52.350;9.790;2024-01-27T11:15:13;6.20;97.10
9373;DHT22;10838;52.350;9.790;2024-01-27T11:17:41;6.30;97.10
9373;DHT22;10838;52.350;9.790;2024-01-27T11:20:08;6.30;97.10
9373;DHT22;10838;52.350;9.790;2024-01-27T11:22:37;6.40;97.10
9373;DHT22;10838;52.350;9.790;2024-01-27T11:25:14;6.40;97.00
9373;DHT22;10838;52.350;9.790;2024-01-27T11:27:42;6.40;97.00
9373;DHT22;10838;52.350;9.790;2024-01-27T11:30:25;6.50;97.00
9373;DHT22;10838;52.350;9.790;2024-01-27T11:32:54;6.50;97.00
9373;DHT22;10838;52.350;9.790;2024-01-27T11:35:20;6.50;96.90
9373;DHT22;10838;52.350;9.790;2024-01-27T11:37:47;6.60;96.90
9373;DHT22;10838;52.350;9.790;2024-01-27T11:40:14;6.60;97.00
9373;DHT22;10838;52.350;9.790;2024-01-27T11:42:41;6.70;96.90
9373;DHT22;10838;52.350;9.790;2024-01-27T11:45:08;6.70;96.90
9373;DHT22;10838;52.350;9.790;2024-01-27T11:47:35;6.70;96.90
9373;DHT22;10838;52.350;9.790;2024-01-27T11:50:03;6.70;96.90
9373;DHT22;10838;52.350;9.790;2024-01-27T11:52:30;6.80;96.90
9373;DHT22;10838;52.350;9.790;2024-01-27T11:54:57;6.80;96.90
9373;DHT22;10838;52.350;9.790;2024-01-27T11:57:24;6.80;96.80
9373;DHT22;10838;52.350;9.790;2024-01-27T11:59:51;6.90;96.80
9373;DHT22;10838;52.350;9.790;2024-01-27T12:02:18;6.90;96.90
9373;DHT22;10838;52.350;9.790;2024-01-27T12:04:44;6.90;96.80
9373;DHT22;10838;52.350;9.790;2024-01-27T12:07:12;6.90;96.80
9373;DHT22;10838;52.350;9.790;2024-01-27T12:09:39;7.00;96.80
9373;DHT22;10838;52.350;9.790;2024-01-27T12:12:08;7.00;96.80
9373;DHT22;10838;52.350;9.790;2024-01-27T12:14:39;7.00;96.80
9373;DHT22;10838;52.350;9.790;2024-01-27T12:17:08;7.10;96.80
9373;DHT22;10838;52.350;9.790;2024-01-27T12:19:35;7.10;96.80
9373;DHT22;10838;52.350;9.790;2024-01-27T12:22:02;7.10;96.80
9373;DHT22;10838;52.350;9.790;2024-01-27T12:24:30;7.20;96.80
9373;DHT22;10838;52.350;9.790;2024-01-27T12:26:58;7.20;96.80
9373;DHT22;10838;52.350;9.790;2024-01-27T12:29:25;7.20;96.80
9373;DHT22;10838;52.350;9.790;2024-01-27T12:31:52;7.30;96.80
9373;DHT22;10838;52.350;9.790;2024-01-27T12:34:20;7.30;96.80
9373;DHT22;10838;52.350;9.790;2024-01-27T12:36:46;7.30;96.70
9373;DHT22;10838;52.350;9.790;2024-01-27T12:39:13;7.30;96.70
9373;DHT22;10838;52.350;9.790;2024-01-27T12:41:41;7.40;96.60
9373;DHT22;10838;52.350;9.790;2024-01-27T12:44:07;7.40;96.60
9373;DHT22;10838;52.350;9.790;2024-01-27T12:46:34;7.40;96.60
9373;DHT22;10838;52.350;9.790;2024-01-27T12:49:00;7.40;96.50
9373;DHT22;10838;52.350;9.790;2024-01-27T12:51:28;7.40;96.50
9373;DHT22;10838;52.350;9.790;2024-01-27T12:53:55;7.40;96.50
9373;DHT22;10838;52.350;9.790;2024-01-27T12:56:21;7.50;96.50
9373;DHT22;10838;52.350;9.790;2024-01-27T12:58:49;7.50;96.50
9373;DHT22;10838;52.350;9.790;2024-01-27T13:01:16;7.50;96.40
9373;DHT22;10838;52.350;9.790;2024-01-27T13:03:43;7.50;96.40
9373;DHT22;10838;52.350;9.790;2024-01-27T13:06:09;7.50;96.30
9373;DHT22;10838;52.350;9.790;2024-01-27T13:08:36;7.50;96.30
9373;DHT22;10838;52.350;9.790;2024-01-27T13:11:03;7.50;96.30
9373;DHT22;10838;52.350;9.790;2024-01-27T13:13:29;7.50;96.20
9373;DHT22;10838;52.350;9.790;2024-01-27T13:15:57;7.50;96.30
9373;DHT22;10838;52.350;9.790;2024-01-27T13:18:24;7.60;96.30
9373;DHT22;10838;52.350;9.790;2024-01-27T13:20:50;7.60;96.20
9373;DHT22;10838;52.350;9.790;2024-01-27T13:23:17;7.60;96.20
9373;DHT22;10838;52.350;9.790;2024-01-27T13:25:43;7.60;96.20
9373;DHT22;10838;52.350;9.790;2024-01-27T13:28:10;7.60;96.20
9373;DHT22;10838;52.350;9.790;2024-01-27T13:30:38;7.60;96.30
9373;DHT22;10838;52.350;9.790;2024-01-27T13:33:06;7.60;96.30
9373;DHT22;10838;52.350;9.790;2024-01-27T13:35:32;7.60;96.30
9373;DHT22;10838;52.350;9.790;2024-01-27T13:37:59;7.60;96.20
9373;DHT22;10838;52.350;9.790;2024-01-27T13:40:25;7.60;96.20
9373;DHT22;10838;52.350;9.790;2024-01-27T13:42:52;7.60;96.20
9373;DHT22;10838;52.350;9.790;2024-01-27T13:45:19;7.60;96.20
9373;DHT22;10838;52.350;9.790;2024-01-27T13:47:45;7.60;96.20
9373;DHT22;10838;52.350;9.790;2024-01-27T13:50:13;7.60;96.20
9373;DHT22;10838;52.350;9.790;2024-01-27T13:52:40;7.70;96.30
9373;DHT22;10838;52.350;9.790;2024-01-27T13:55:09;7.70;96.30
9373;DHT22;10838;52.350;9.790;2024-01-27T13:57:37;7.70;96.20
9373;DHT22;10838;52.350;9.790;2024-01-27T14:00:04;7.70;96.20
9373;DHT22;10838;52.350;9.790;2024-01-27T14:02:31;7.70;96.30
9373;DHT22;10838;52.350;9.790;2024-01-27T14:04:58;7.70;96.30
9373;DHT22;10838;52.350;9.790;2024-01-27T14:07:26;7.70;96.20
9373;DHT22;10838;52.350;9.790;2024-01-27T14:09:52;7.70;96.20
9373;DHT22;10838;52.350;9.790;2024-01-27T14:12:19;7.70;96.20
9373;DHT22;10838;52.350;9.790;2024-01-27T14:14:46;7.70;96.20
9373;DHT22;10838;52.350;9.790;2024-01-27T14:17:12;7.70;96.20
9373;DHT22;10838;52.350;9.790;2024-01-27T14:19:40;7.70;96.20
9373;DHT22;10838;52.350;9.790;2024-01-27T14:22:07;7.70;96.20
9373;DHT22;10838;52.350;9.790;2024-01-27T14:24:34;7.70;96.20
9373;DHT22;10838;52.350;9.790;2024-01-27T14:27:01;7.70;96.20
9373;DHT22;10838;52.350;9.790;2024-01-27T14:29:30;7.70;96.20
9373;DHT22;10838;52.350;9.790;2024-01-27T14:31:57;7.70;96.20
9373;DHT22;10838;52.350;9.790;2024-01-27T14:34:24;7.70;96.20
9373;DHT22;10838;52.350;9.790;2024-01-27T14:36:51;7.70;96.20
9373;DHT22;10838;52.350;9.790;2024-01-27T14:39:18;7.70;96.20
9373;DHT22;10838;52.350;9.790;2024-01-27T14:41:47;7.70;96.20
9373;DHT22;10838;52.350;9.790;2024-01-27T14:44:13;7.70;96.20
9373;DHT22;10838;52.350;9.790;2024-01-27T14:46:40;7.70;96.20
9373;DHT22;10838;52.350;9.790;2024-01-27T14:49:06;7.70;96.10
9373;DHT22;10838;52.350;9.790;2024-01-27T14:51:33;7.70;96.10
9373;DHT22;10838;52.350;9.790;2024-01-27T14:54:00;7.70;96.10
9373;DHT22;10838;52.350;9.790;2024-01-27T14:56:29;7.70;96.10
9373;DHT22;10838;52.350;9.790;2024-01-27T14:58:57;7.60;96.10
9373;DHT22;10838;52.350;9.790;2024-01-27T15:01:24;7.60;96.10
9373;DHT22;10838;52.350;9.790;2024-01-27T15:03:50;7.60;96.10
9373;DHT22;10838;52.350;9.790;2024-01-27T15:06:18;7.60;96.10
9373;DHT22;10838;52.350;9.790;2024-01-27T15:08:44;7.60;96.10
9373;DHT22;10838;52.350;9.790;2024-01-27T15:11:11;7.60;96.10
9373;DHT22;10838;52.350;9.790;2024-01-27T15:13:38;7.60;96.10
9373;DHT22;10838;52.350;9.790;2024-01-27T15:16:06;7.50;96.10
9373;DHT22;10838;52.350;9.790;2024-01-27T15:18:32;7.50;96.10
9373;DHT22;10838;52.350;9.790;2024-01-27T15:20:59;7.50;96.00
9373;DHT22;10838;52.350;9.790;2024-01-27T15:23:26;7.50;96.00
9373;DHT22;10838;52.350;9.790;2024-01-27T15:25:54;7.50;96.10
9373;DHT22;10838;52.350;9.790;2024-01-27T15:28:20;7.50;96.10
9373;DHT22;10838;52.350;9.790;2024-01-27T15:30:47;7.40;96.00
9373;DHT22;10838;52.350;9.790;2024-01-27T15:33:16;7.40;96.00
9373;DHT22;10838;52.350;9.790;2024-01-27T15:35:42;7.40;96.10
9373;DHT22;10838;52.350;9.790;2024-01-27T15:38:09;7.40;96.10
9373;DHT22;10838;52.350;9.790;2024-01-27T15:40:36;7.30;96.10
9373;DHT22;10838;52.350;9.790;2024-01-27T15:43:03;7.30;96.10
9373;DHT22;10838;52.350;9.790;2024-01-27T15:45:30;7.30;96.10
9373;DHT22;10838;52.350;9.790;2024-01-27T15:47:56;7.30;96.10
9373;DHT22;10838;52.350;9.790;2024-01-27T15:50:26;7.20;96.10
9373;DHT22;10838;52.350;9.790;2024-01-27T15:52:53;7.20;96.10
9373;DHT22;10838;52.350;9.790;2024-01-27T15:55:20;7.10;96.10
9373;DHT22;10838;52.350;9.790;2024-01-27T15:57:46;7.10;96.10
9373;DHT22;10838;52.350;9.790;2024-01-27T16:00:14;7.10;96.10